Time;durP1;ratioP1;P1;durP2;ratioP2;P2;SDS_P1;SDS_P2;PMS_P1;PMS_P2;Temp;Humidity;BMP_temperature;BMP_pressure;BME280_temperature;BME280_humidity;BME280_pressure;Samples;Min_cycle;Max_cycle;Signal;HPM_P1;HPM_P2
2022/01/23 00:01:43;;;;;;;47.50;31.58;;;;;;;-4.67;93.25;97151.88;5013084;28;20026;-60
2022/01/23 00:04:08;;;;;;;42.35;30.25;;;;;;;-4.71;92.66;97147.63;5012147;28;20080;-60
2022/01/23 00:06:34;;;;;;;46.63;30.48;;;;;;;-4.74;93.39;97148.53;5013750;28;20455;-60
2022/01/23 00:08:59;;;;;;;40.25;29.30;;;;;;;-4.76;93.17;97145.09;5013673;28;20107;-60
2022/01/23 00:11:27;;;;;;;41.05;27.95;;;;;;;-4.74;92.61;97140.81;5013394;28;20026;-60
2022/01/23 00:19:11;;;;;;;39.78;27.77;;;;;;;-4.71;93.40;97147.63;5013666;28;20044;-61
2022/01/23 00:21:39;;;;;;;39.22;28.63;;;;;;;-4.75;93.27;97139.97;5013158;28;20025;-60
2022/01/23 00:31:58;;;;;;;29.90;22.58;;;;;;;-4.89;92.86;97141.78;5009410;28;20020;-60
2022/01/23 00:34:23;;;;;;;36.30;21.02;;;;;;;-4.84;93.66;97139.19;5012818;28;20025;-60
2022/01/23 00:36:49;;;;;;;32.35;20.90;;;;;;;-4.86;93.82;97136.63;5013605;28;20054;-60
2022/01/23 00:39:14;;;;;;;31.20;21.55;;;;;;;-4.85;93.77;97135.78;5005792;28;20010;-60
2022/01/23 00:41:39;;;;;;;31.88;22.40;;;;;;;-4.82;93.83;97138.31;5012426;28;20084;-60
2022/01/23 00:44:05;;;;;;;51.45;33.53;;;;;;;-4.81;93.48;97129.72;5013051;28;20038;-60
2022/01/23 00:46:36;;;;;;;45.15;29.40;;;;;;;-4.78;93.69;97129.72;5013376;28;20308;-60
2022/01/23 00:51:34;;;;;;;45.38;27.33;;;;;;;-4.82;94.29;97132.31;5012621;28;20105;-60
2022/01/23 00:54:03;;;;;;;39.83;25.95;;;;;;;-4.89;94.13;97122.09;5012773;28;20038;-61
2022/01/23 00:56:28;;;;;;;38.28;25.55;;;;;;;-4.90;93.76;97125.53;5012729;28;20022;-60
2022/01/23 00:58:53;;;;;;;40.15;26.17;;;;;;;-4.93;93.99;97130.69;5012803;28;20024;-60
2022/01/23 01:01:20;;;;;;;36.92;24.55;;;;;;;-4.94;93.66;97123.84;5012919;28;20022;-60
2022/01/23 01:03:46;;;;;;;41.35;24.70;;;;;;;-4.95;94.11;97122.13;5012325;28;20462;-60
2022/01/23 01:06:11;;;;;;;34.58;24.13;;;;;;;-4.95;94.46;97113.56;5012363;28;20030;-60
2022/01/23 01:08:37;;;;;;;36.22;24.15;;;;;;;-4.93;93.84;97122.97;5012475;28;20072;-60
2022/01/23 01:13:52;;;;;;;31.90;22.17;;;;;;;-4.93;93.45;97122.97;5012515;28;20030;-60
2022/01/23 01:30:27;;;;;;;38.45;22.90;;;;;;;-4.94;92.72;97136.69;5012537;28;20449;-60
2022/01/23 01:33:09;;;;;;;38.33;20.92;;;;;;;-4.95;92.59;97131.56;5011739;28;20073;-60
2022/01/23 01:35:43;;;;;;;28.70;20.88;;;;;;;-4.95;92.43;97134.13;5012140;28;20053;-60
2022/01/23 01:38:09;;;;;;;36.00;22.65;;;;;;;-5.02;92.48;97133.31;5011870;28;20069;-61
2022/01/23 01:40:34;;;;;;;32.42;22.75;;;;;;;-5.06;92.56;97134.19;5012114;28;20504;-60
2022/01/23 01:43:00;;;;;;;41.85;23.55;;;;;;;-5.09;93.21;97131.66;5010348;28;20393;-60
2022/01/23 01:45:28;;;;;;;35.97;21.17;;;;;;;-5.11;93.71;97135.94;5011795;28;20053;-60
2022/01/23 01:47:56;;;;;;;36.78;22.80;;;;;;;-5.12;94.22;97131.69;5011957;28;21407;-60
2022/01/23 01:50:22;;;;;;;34.97;20.85;;;;;;;-5.11;93.46;97129.09;5012036;28;20030;-60
2022/01/23 01:52:48;;;;;;;31.40;21.67;;;;;;;-5.10;93.86;97125.66;5011600;28;20030;-60
2022/01/23 01:55:21;;;;;;;33.17;19.67;;;;;;;-5.08;93.79;97135.94;5011677;28;20025;-60
2022/01/23 01:57:53;;;;;;;28.38;19.17;;;;;;;-5.15;93.55;97135.09;5011723;28;20018;-60
2022/01/23 02:08:26;;;;;;;29.33;20.35;;;;;;;-5.29;93.73;97131.81;5011309;28;20124;-60
2022/01/23 02:11:02;;;;;;;30.63;19.27;;;;;;;-5.28;93.95;97123.22;5011640;28;20064;-60
2022/01/23 02:13:40;;;;;;;29.05;18.98;;;;;;;-5.30;93.28;97119.81;5011441;28;20068;-60
2022/01/23 02:24:03;;;;;;;26.48;19.40;;;;;;;-5.37;93.83;97132.69;5010869;28;20516;-60
2022/01/23 02:56:45;;;;;;;18.38;14.43;;;;;;;-5.51;94.53;97112.22;5010634;28;20065;-60
2022/01/23 02:59:22;;;;;;;22.85;15.27;;;;;;;-5.52;94.07;97105.38;5010758;28;20029;-60
2022/01/23 03:04:27;;;;;;;19.20;14.93;;;;;;;-5.52;93.91;97104.56;5005564;28;20026;-60
2022/01/23 03:07:12;;;;;;;15.60;12.95;;;;;;;-5.55;94.24;97097.72;5010148;28;20045;-60
2022/01/23 03:13:38;;;;;;;20.33;14.07;;;;;;;-5.56;93.85;97098.56;5010674;28;20026;-60
2022/01/23 03:29:01;;;;;;;21.02;14.57;;;;;;;-5.63;95.24;97091.78;5010261;28;20036;-60
2022/01/23 03:31:28;;;;;;;16.77;13.57;;;;;;;-5.65;94.67;97094.34;5005816;28;20077;-60
2022/01/23 03:33:53;;;;;;;17.42;13.68;;;;;;;-5.66;95.36;97094.34;5010182;28;20458;-60
2022/01/23 03:36:19;;;;;;;17.52;14.02;;;;;;;-5.67;95.39;97102.91;5009733;28;20117;-60
2022/01/23 03:38:45;;;;;;;20.10;14.75;;;;;;;-5.70;95.25;97101.22;5009916;28;20429;-60
2022/01/23 03:41:11;;;;;;;18.52;13.88;;;;;;;-5.73;95.86;97106.38;5009409;28;20026;-60
2022/01/23 03:43:39;;;;;;;19.00;14.02;;;;;;;-5.76;96.18;97112.34;5009834;28;20033;-60
2022/01/23 03:46:22;;;;;;;19.17;13.13;;;;;;;-5.76;96.16;97109.78;5009750;28;20049;-60
2022/01/23 03:51:20;;;;;;;21.38;14.60;;;;;;;-5.76;95.57;97109.78;5010309;28;20032;-60
2022/01/23 03:53:46;;;;;;;16.77;13.75;;;;;;;-5.76;95.30;97111.50;5010062;28;20381;-60
2022/01/23 03:56:11;;;;;;;14.63;13.07;;;;;;;-5.78;95.67;97111.50;5009745;28;20113;-60
2022/01/23 03:58:36;;;;;;;16.35;13.38;;;;;;;-5.80;95.97;97105.53;5009510;28;20470;-60
2022/01/23 04:01:02;;;;;;;18.08;13.77;;;;;;;-5.82;95.94;97101.25;5010045;28;20053;-60
2022/01/23 04:03:28;;;;;;;16.85;13.25;;;;;;;-5.81;95.41;97103.84;5009919;28;20026;-60
2022/01/23 04:05:54;;;;;;;18.58;13.40;;;;;;;-5.83;95.13;97097.88;5011229;28;20038;-60
2022/01/23 04:08:20;;;;;;;15.00;13.25;;;;;;;-5.81;94.65;97100.41;5013646;28;20029;-60
2022/01/23 04:10:46;;;;;;;21.85;13.57;;;;;;;-5.84;95.17;97103.84;5013577;28;20026;-60
2022/01/23 04:34:33;;;;;;;14.07;12.18;;;;;;;-5.86;94.73;97086.75;5011504;28;20037;-59
2022/01/23 05:01:15;;;;;;;17.70;12.70;;;;;;;-6.01;95.83;97060.34;5010433;28;20032;-61
2022/01/23 05:04:06;;;;;;;13.50;11.98;;;;;;;-6.02;95.82;97065.50;5011137;28;20030;-56
2022/01/23 05:06:29;;;;;;;13.48;11.90;;;;;;;-6.02;95.46;97066.31;5008781;28;20038;-59
2022/01/23 05:08:55;;;;;;;18.65;12.45;;;;;;;-5.99;95.00;97062.88;5011981;28;20041;-59
2022/01/23 05:11:21;;;;;;;15.93;12.27;;;;;;;-5.96;94.52;97058.59;5011181;28;20049;-59
2022/01/23 05:13:47;;;;;;;22.88;13.63;;;;;;;-5.95;95.20;97072.25;5010221;28;20040;-60
2022/01/23 05:16:13;;;;;;;14.05;11.85;;;;;;;-5.98;94.92;97073.09;5010463;28;20022;-60
2022/01/23 05:18:39;;;;;;;14.45;12.20;;;;;;;-6.03;94.67;97071.47;5009986;28;20045;-60
2022/01/23 05:23:55;;;;;;;17.95;11.70;;;;;;;-6.13;95.04;97071.50;4989146;28;20025;-61
2022/01/23 05:26:21;;;;;;;16.42;12.15;;;;;;;-6.15;94.91;97073.22;5010454;28;20100;-61
2022/01/23 05:28:47;;;;;;;16.98;11.60;;;;;;;-6.16;95.27;97076.66;5010742;28;20552;-60
2022/01/23 05:31:12;;;;;;;14.80;11.38;;;;;;;-6.14;95.59;97074.09;5010923;28;20026;-59
2022/01/23 05:33:38;;;;;;;16.02;10.95;;;;;;;-6.16;95.08;97074.09;5008212;28;20052;-60
2022/01/23 05:36:05;;;;;;;17.42;12.52;;;;;;;-6.15;95.14;97075.78;5009869;28;20373;-60
2022/01/23 05:38:30;;;;;;;15.05;11.85;;;;;;;-6.11;96.25;97074.91;5009730;28;20038;-59
2022/01/23 05:40:57;;;;;;;14.32;11.23;;;;;;;-6.06;96.30;97075.75;5010368;28;20022;-60
2022/01/23 05:43:24;;;;;;;17.55;13.35;;;;;;;-5.99;96.50;97061.16;5010493;28;20030;-59
2022/01/23 05:45:50;;;;;;;15.60;13.27;;;;;;;-5.94;96.84;97061.13;5011116;28;20045;-61
2022/01/23 05:48:16;;;;;;;22.42;14.45;;;;;;;-5.95;97.47;97069.69;5007585;28;20379;-59
2022/01/23 05:50:43;;;;;;;18.25;13.75;;;;;;;-5.98;97.61;97067.16;5007733;28;20053;-59
2022/01/23 05:53:09;;;;;;;20.25;14.77;;;;;;;-5.97;96.57;97074.84;5008924;28;20083;-59
2022/01/23 05:55:34;;;;;;;15.68;13.23;;;;;;;-5.98;96.65;97067.97;5006677;28;20034;-59
2022/01/23 05:57:59;;;;;;;16.05;13.77;;;;;;;-5.99;96.53;97071.41;5010729;28;20029;-59
2022/01/23 06:00:25;;;;;;;23.58;14.45;;;;;;;-6.00;97.31;97077.41;5010571;28;20061;-59
2022/01/23 06:02:52;;;;;;;22.00;15.02;;;;;;;-5.99;96.97;97078.25;5010303;28;20033;-59
2022/01/23 06:05:17;;;;;;;16.60;14.07;;;;;;;-5.98;97.55;97082.53;5010295;28;20022;-58
2022/01/23 06:07:42;;;;;;;21.70;15.63;;;;;;;-6.00;97.24;97081.69;5009756;28;20033;-59
2022/01/23 06:10:18;;;;;;;24.33;14.35;;;;;;;-6.01;96.87;97085.16;5010431;28;20029;-59
2022/01/23 06:12:44;;;;;;;18.67;15.80;;;;;;;-6.01;96.24;97088.53;5007336;28;20473;-59
2022/01/23 06:15:09;;;;;;;26.58;22.13;;;;;;;-6.01;96.12;97095.41;5010131;28;20073;-59
2022/01/23 06:17:34;;;;;;;33.33;23.38;;;;;;;-6.05;96.68;97095.41;5008341;28;20567;-59
2022/01/23 06:20:01;;;;;;;24.85;22.15;;;;;;;-6.09;96.26;97098.00;5010413;28;20076;-59
2022/01/23 06:22:26;;;;;;;31.25;23.33;;;;;;;-6.11;96.22;97094.59;5008725;28;20026;-59
2022/01/23 06:24:52;;;;;;;29.35;21.30;;;;;;;-6.14;96.28;97104.84;5009840;28;20035;-59
2022/01/23 06:27:17;;;;;;;25.83;21.75;;;;;;;-6.18;96.10;97106.56;5009467;28;20139;-59
2022/01/23 06:29:44;;;;;;;25.02;19.58;;;;;;;-6.17;96.52;97115.97;5009378;28;20030;-59
2022/01/23 06:32:09;;;;;;;23.17;19.35;;;;;;;-6.15;96.31;97108.28;5008749;28;20054;-59
2022/01/23 06:34:35;;;;;;;23.15;19.15;;;;;;;-6.15;95.88;97108.28;5009480;28;20101;-59
2022/01/23 06:37:00;;;;;;;26.02;18.75;;;;;;;-6.14;95.80;97103.13;5009266;28;20474;-60
2022/01/23 06:39:26;;;;;;;24.70;20.33;;;;;;;-6.19;95.81;97112.56;5008909;28;20135;-59
2022/01/23 06:41:52;;;;;;;22.15;17.88;;;;;;;-6.21;95.84;97114.28;5009388;28;20026;-58
2022/01/23 06:44:18;;;;;;;20.08;16.20;;;;;;;-6.22;95.54;97117.69;5009446;28;20462;-60
2022/01/23 06:46:44;;;;;;;23.15;18.50;;;;;;;-6.24;95.85;97111.72;5008077;28;20030;-59
2022/01/23 06:49:10;;;;;;;23.15;16.52;;;;;;;-6.26;95.67;97111.72;5010139;28;20033;-59
2022/01/23 06:51:35;;;;;;;18.48;15.57;;;;;;;-6.27;96.09;97114.31;5009577;28;20080;-59
2022/01/23 06:54:01;;;;;;;20.42;16.50;;;;;;;-6.25;96.42;97112.59;5009530;28;20073;-59
2022/01/23 06:56:26;;;;;;;22.45;17.17;;;;;;;-6.25;96.56;97113.41;5009206;28;20037;-59
2022/01/23 06:58:52;;;;;;;22.65;17.92;;;;;;;-6.24;95.82;97114.28;5009383;28;20028;-59
2022/01/23 07:01:17;;;;;;;23.90;19.27;;;;;;;-6.20;96.14;97116.81;5009657;28;20097;-59
2022/01/23 07:03:43;;;;;;;22.17;18.10;;;;;;;-6.23;95.89;97111.69;5009612;28;20032;-60
2022/01/23 07:06:08;;;;;;;22.20;16.98;;;;;;;-6.19;95.61;97113.41;5009787;28;20080;-59
2022/01/23 07:08:34;;;;;;;19.10;16.38;;;;;;;-6.17;95.82;97115.97;5007903;28;20041;-59
2022/01/23 07:10:59;;;;;;;19.95;16.63;;;;;;;-6.20;95.82;97116.81;5010662;28;20461;-59
2022/01/23 07:13:25;;;;;;;19.75;16.50;;;;;;;-6.21;95.28;97117.69;5010324;28;20033;-60
2022/01/23 07:15:50;;;;;;;17.40;15.25;;;;;;;-6.23;95.20;97119.41;5010606;28;20036;-59
2022/01/23 07:18:16;;;;;;;19.58;16.00;;;;;;;-6.23;95.49;97111.69;5009959;28;20525;-59
2022/01/23 07:20:46;;;;;;;20.63;16.67;;;;;;;-6.23;95.83;97116.00;5010917;28;20069;-60
2022/01/23 07:23:12;;;;;;;19.27;17.00;;;;;;;-6.22;96.86;97118.53;5010012;28;20062;-60
2022/01/23 07:25:38;;;;;;;18.92;16.95;;;;;;;-6.19;97.36;97123.69;5010203;28;20025;-59
2022/01/23 07:28:06;;;;;;;22.83;17.80;;;;;;;-6.19;97.68;97128.81;5009356;28;20544;-59
2022/01/23 07:31:30;;;;;;;22.33;17.77;;;;;;;-6.17;97.07;97126.22;5010239;28;20034;-60
2022/01/23 07:33:20;;;;;;;22.52;19.55;;;;;;;-6.07;97.04;97124.47;5000970;28;20038;-59
2022/01/23 07:35:46;;;;;;;24.75;20.65;;;;;;;-5.98;96.87;97123.56;5010332;28;20029;-59
2022/01/23 07:38:16;;;;;;;24.88;20.38;;;;;;;-5.93;97.52;97134.66;5009988;28;20060;-59
2022/01/23 07:40:43;;;;;;;25.45;21.50;;;;;;;-5.91;97.35;97133.81;5011520;28;20527;-59
2022/01/23 07:43:08;;;;;;;33.22;26.30;;;;;;;-5.91;97.35;97133.81;5014392;28;20516;-59
2022/01/23 07:45:34;;;;;;;37.78;28.25;;;;;;;-5.86;97.35;97132.94;5014119;28;20034;-59
2022/01/23 07:47:59;;;;;;;33.72;25.15;;;;;;;-5.81;97.02;97139.75;5014092;28;20065;-61
2022/01/23 07:50:24;;;;;;;27.40;23.40;;;;;;;-5.72;97.00;97140.56;5012062;28;20038;-59
2022/01/23 07:52:50;;;;;;;34.65;27.23;;;;;;;-5.66;97.02;97136.25;5014058;28;20026;-59
2022/01/23 07:55:16;;;;;;;30.02;26.42;;;;;;;-5.58;97.29;97130.22;5013289;28;20319;-58
2022/01/23 07:57:42;;;;;;;30.80;25.05;;;;;;;-5.50;96.45;97142.16;5012426;28;20030;-58
2022/01/23 08:00:10;;;;;;;29.73;26.40;;;;;;;-5.43;96.50;97130.16;5021265;28;20026;-58
2022/01/23 08:02:35;;;;;;;29.33;22.60;;;;;;;-5.35;96.08;97127.53;5013418;28;20034;-60
2022/01/23 08:05:01;;;;;;;30.42;25.70;;;;;;;-5.29;95.68;97127.50;5013796;28;20406;-60
2022/01/23 08:09:55;;;;;;;31.73;26.05;;;;;;;-5.13;95.73;97135.94;5013673;28;20367;-60
2022/01/23 08:12:21;;;;;;;33.90;26.50;;;;;;;-5.13;96.25;97122.28;5012838;28;20018;-60
2022/01/23 08:14:47;;;;;;;31.38;25.25;;;;;;;-5.08;96.17;97123.09;5013252;28;20022;-59
2022/01/23 08:17:12;;;;;;;28.75;23.63;;;;;;;-5.03;95.92;97136.75;5013686;28;20053;-59
2022/01/23 08:19:38;;;;;;;27.52;23.20;;;;;;;-5.00;96.27;97144.41;5012715;28;20050;-59
2022/01/23 08:22:04;;;;;;;31.05;24.67;;;;;;;-4.91;95.84;97140.94;5010132;28;20030;-59
2022/01/23 08:24:29;;;;;;;26.35;23.13;;;;;;;-4.86;96.01;97138.34;5004402;28;20026;-59
2022/01/23 08:26:55;;;;;;;25.08;20.42;;;;;;;-4.84;96.03;97140.03;5008202;28;20375;-59
2022/01/23 08:29:20;;;;;;;25.58;20.65;;;;;;;-4.79;96.20;97146.00;5009088;28;20118;-60
2022/01/23 08:31:47;;;;;;;30.27;26.83;;;;;;;-4.75;95.32;97141.69;5011170;28;20037;-59
2022/01/23 08:34:12;;;;;;;32.17;27.77;;;;;;;-4.71;95.36;97140.78;5012314;28;20069;-59
2022/01/23 08:36:38;;;;;;;33.92;28.55;;;;;;;-4.76;95.66;97137.38;5011036;28;20092;-60
2022/01/23 08:39:04;;;;;;;34.65;27.23;;;;;;;-4.73;95.23;97134.81;5012717;28;20297;-60
2022/01/23 08:44:14;;;;;;;36.80;25.38;;;;;;;-4.79;95.81;97133.13;5009412;28;20021;-59
2022/01/23 08:46:40;;;;;;;33.47;27.17;;;;;;;-4.80;96.35;97128.00;5011946;28;20022;-60
2022/01/23 08:49:06;;;;;;;31.40;26.65;;;;;;;-4.81;96.42;97129.72;5007490;28;20030;-60
2022/01/23 08:51:31;;;;;;;33.20;27.58;;;;;;;-4.82;96.21;97129.72;5008694;28;20032;-60
2022/01/23 08:53:59;;;;;;;36.47;28.08;;;;;;;-4.80;96.56;97128.88;5008917;28;20033;-48
2022/01/23 08:56:25;;;;;;;33.60;27.30;;;;;;;-4.77;96.68;97122.84;5009947;28;20080;-50
2022/01/23 08:58:51;;;;;;;30.75;26.08;;;;;;;-4.69;97.01;97127.91;5010672;28;20041;-49
2022/01/23 09:01:16;;;;;;;32.20;28.70;;;;;;;-4.67;96.33;97121.91;5011522;28;20036;-48
2022/01/23 09:03:42;;;;;;;30.70;25.25;;;;;;;-4.58;96.89;97120.09;5011384;28;20060;-51
2022/01/23 09:06:08;;;;;;;34.80;28.30;;;;;;;-4.45;97.08;97121.72;5012292;28;20083;-49
2022/01/23 09:08:37;;;;;;;36.42;26.80;;;;;;;-4.28;96.15;97123.25;5011811;28;20541;-52
2022/01/23 09:11:08;;;;;;;38.28;29.33;;;;;;;-4.10;96.10;97127.34;5011632;28;20025;-52
2022/01/23 09:16:06;;;;;;;40.47;34.17;;;;;;;-3.98;95.65;97121.22;5012603;28;20069;-54
2022/01/23 09:18:33;;;;;;;42.72;34.05;;;;;;;-3.91;95.63;97128.84;5011433;28;20169;-51
2022/01/23 09:20:58;;;;;;;41.47;35.15;;;;;;;-3.77;95.04;97135.53;5011947;28;20175;-48
2022/01/23 09:23:24;;;;;;;42.58;34.97;;;;;;;-3.53;95.42;97136.97;5011801;28;20026;-52
2022/01/23 09:25:49;;;;;;;31.63;24.13;;;;;;;-3.22;96.24;97139.13;5011627;28;20025;-49
2022/01/23 09:28:17;;;;;;;22.92;17.98;;;;;;;-2.98;95.05;97142.22;5011543;28;20037;-51
2022/01/23 09:30:48;;;;;;;28.45;24.73;;;;;;;-2.76;94.19;97142.72;5010886;28;20505;-51
2022/01/23 09:33:13;;;;;;;27.83;23.88;;;;;;;-2.70;93.61;97141.78;5010783;28;20022;-48
2022/01/23 09:35:39;;;;;;;28.80;24.30;;;;;;;-2.63;93.68;97145.97;5011961;28;20022;-48
2022/01/23 09:38:05;;;;;;;25.17;21.55;;;;;;;-2.53;94.75;97132.94;5011285;28;20022;-48
2022/01/23 09:40:30;;;;;;;22.75;20.33;;;;;;;-2.40;93.75;97143.88;5011048;28;20029;-52
2022/01/23 09:43:04;;;;;;;31.85;25.98;;;;;;;-2.18;92.15;97141.75;5009810;28;20065;-50
2022/01/23 09:45:31;;;;;;;20.30;17.95;;;;;;;-2.03;92.82;97138.03;5007276;28;20030;-53
2022/01/23 09:48:00;;;;;;;18.63;14.90;;;;;;;-1.90;90.62;97133.50;5009193;28;20034;-48
2022/01/23 09:50:26;;;;;;;15.05;13.25;;;;;;;-1.78;90.22;97128.09;5010066;28;20513;-50
2022/01/23 09:52:55;;;;;;;16.23;14.00;;;;;;;-1.66;88.62;97128.72;5009161;28;20093;-49
2022/01/23 09:55:22;;;;;;;17.50;15.00;;;;;;;-1.30;89.53;97129.69;5011122;28;20123;-46
2022/01/23 09:57:49;;;;;;;22.50;19.45;;;;;;;-1.03;87.70;97126.50;5009621;28;20018;-48
2022/01/23 10:00:20;;;;;;;23.00;20.30;;;;;;;-0.84;85.55;97132.13;5008958;28;20022;-48
2022/01/23 10:02:47;;;;;;;17.13;14.70;;;;;;;-0.61;85.68;97121.19;5010162;28;20033;-52
2022/01/23 10:05:13;;;;;;;18.00;14.27;;;;;;;-0.36;87.37;97122.31;5008304;28;20032;-50
2022/01/23 10:07:42;;;;;;;13.88;11.20;;;;;;;-0.12;85.00;97127.75;5011065;28;20079;-47
2022/01/23 10:10:12;;;;;;;11.48;10.30;;;;;;;0.05;83.83;97117.78;5011393;28;20568;-49
2022/01/23 10:12:42;;;;;;;9.93;8.93;;;;;;;0.34;83.75;97121.31;5010972;28;20037;-49
2022/01/23 10:15:09;;;;;;;11.20;10.10;;;;;;;0.45;81.95;97125.34;5009668;28;20022;-50
2022/01/23 10:17:35;;;;;;;44.70;21.65;;;;;;;0.68;79.08;97115.16;5009760;28;20045;-48
2022/01/23 10:20:01;;;;;;;30.55;18.30;;;;;;;0.88;81.69;97102.47;5011340;28;20037;-47
2022/01/23 10:22:28;;;;;;;16.83;12.45;;;;;;;0.87;80.30;97103.34;5004557;28;20406;-50
2022/01/23 10:25:04;;;;;;;14.02;11.38;;;;;;;0.99;76.34;97106.41;5009359;28;20024;-52
2022/01/23 10:27:50;;;;;;;17.20;13.60;;;;;;;1.14;78.85;97104.25;5008835;28;20045;-52
2022/01/23 10:30:21;;;;;;;11.15;9.18;;;;;;;1.24;79.24;97099.63;5009903;28;20041;-46
2022/01/23 10:33:03;;;;;;;9.88;8.02;;;;;;;1.32;75.92;97088.97;5006781;28;20036;-49
2022/01/23 10:35:30;;;;;;;14.07;9.35;;;;;;;1.38;76.88;97084.41;5009817;28;20171;-49
2022/01/23 10:38:03;;;;;;;15.07;9.60;;;;;;;1.59;75.25;97089.78;5009432;28;20034;-49
2022/01/23 10:40:32;;;;;;;12.88;9.60;;;;;;;1.89;76.34;97081.00;5009467;28;20099;-50
2022/01/23 10:50:42;;;;;;;12.77;7.93;;;;;;;2.48;70.05;97065.88;5009952;28;20037;-53
2022/01/23 10:53:07;;;;;;;11.82;8.43;;;;;;;2.60;68.85;97062.81;5009798;28;20080;-53
2022/01/23 10:55:34;;;;;;;10.52;7.70;;;;;;;2.62;68.54;97067.94;5009588;28;20029;-48
2022/01/23 10:58:02;;;;;;;17.60;11.65;;;;;;;2.76;68.84;97062.22;5006775;28;20022;-48
2022/01/23 11:00:29;;;;;;;22.38;15.38;;;;;;;2.64;67.39;97068.75;5009671;28;20029;-49
2022/01/23 11:02:57;;;;;;;12.73;9.05;;;;;;;2.82;67.61;97057.63;5009935;28;20338;-51
2022/01/23 11:05:34;;;;;;;17.33;10.70;;;;;;;3.00;65.93;97057.81;5009183;28;20026;-48
2022/01/23 11:08:01;;;;;;;28.08;15.90;;;;;;;3.11;64.39;97062.59;5008583;28;20036;-48
2022/01/23 11:10:27;;;;;;;31.67;17.63;;;;;;;3.17;66.70;97053.66;5009776;28;20038;-49
2022/01/23 11:18:12;;;;;;;38.42;21.35;;;;;;;3.44;62.77;97041.25;5007636;28;20080;-51
2022/01/23 11:20:49;;;;;;;20.85;13.70;;;;;;;3.41;62.82;97034.41;5009208;28;20036;-46
2022/01/23 11:23:27;;;;;;;17.05;12.80;;;;;;;3.60;63.54;97028.44;5007269;28;20018;-48
2022/01/23 11:25:52;;;;;;;16.35;12.75;;;;;;;3.69;63.53;97022.84;5006562;28;20171;-48
2022/01/23 11:28:19;;;;;;;21.05;15.40;;;;;;;3.83;62.88;97027.44;5009211;28;20030;-49
2022/01/23 11:30:48;;;;;;;25.92;19.50;;;;;;;3.67;62.02;97018.59;5009350;28;20041;-50
2022/01/23 11:33:17;;;;;;;28.75;21.17;;;;;;;3.56;62.38;97019.91;5008489;28;20048;-51
2022/01/23 11:35:43;;;;;;;22.50;17.13;;;;;;;3.64;63.38;97014.34;5008180;28;20057;-51
2022/01/23 11:38:13;;;;;;;15.02;13.45;;;;;;;4.03;62.33;97011.81;5008397;28;20029;-52
2022/01/23 11:54:48;;;;;;;23.55;17.05;;;;;;;5.22;56.80;97015.84;5002646;28;20172;-52
2022/01/23 11:57:36;;;;;;;19.42;14.82;;;;;;;5.44;56.67;97006.03;5008809;28;20033;-48
2022/01/23 12:00:07;;;;;;;20.30;16.65;;;;;;;5.58;56.93;97001.84;5006503;28;20052;-51
2022/01/23 12:02:41;;;;;;;15.80;13.40;;;;;;;5.87;55.50;96997.72;5008093;28;20033;-48
2022/01/23 12:05:10;;;;;;;16.27;13.82;;;;;;;5.93;53.65;97001.78;5003614;28;20032;-48
2022/01/23 12:07:36;;;;;;;16.50;14.57;;;;;;;5.95;53.89;96993.84;5009976;28;20037;-52
2022/01/23 12:10:28;;;;;;;14.15;12.60;;;;;;;5.92;54.55;96994.00;5009808;28;20052;-49
2022/01/23 12:13:44;;;;;;;27.92;20.83;;;;;;;5.66;54.80;96983.16;5004277;28;20025;-47
2022/01/23 12:16:31;;;;;;;24.70;16.98;;;;;;;5.76;54.22;96992.22;5008473;28;20034;-52
2022/01/23 12:19:18;;;;;;;22.73;18.35;;;;;;;5.45;54.44;96972.88;5006887;28;20401;-53
2022/01/23 12:21:45;;;;;;;16.13;14.43;;;;;;;5.70;54.82;96969.00;5008372;28;20100;-50
2022/01/23 12:24:14;;;;;;;15.40;12.13;;;;;;;5.70;54.21;96969.88;5009132;28;20026;-48
2022/01/23 12:26:41;;;;;;;14.82;11.38;;;;;;;5.95;54.14;96963.34;5010635;28;20567;-48
2022/01/23 12:29:14;;;;;;;12.60;9.63;;;;;;;6.20;52.16;96961.22;5013421;28;20022;-52
2022/01/23 12:31:41;;;;;;;12.35;9.63;;;;;;;5.84;50.24;96948.22;5013202;28;20029;-52
2022/01/23 12:34:07;;;;;;;10.48;8.63;;;;;;;5.51;49.88;96943.84;5010633;28;20030;-53
2022/01/23 12:36:35;;;;;;;8.82;7.88;;;;;;;5.57;51.18;96927.00;5012031;28;20021;-52
2022/01/23 12:39:06;;;;;;;10.80;9.50;;;;;;;5.65;50.42;96934.44;5013024;28;20076;-49
2022/01/23 12:41:36;;;;;;;10.07;8.43;;;;;;;5.63;50.03;96925.84;5011799;28;20061;-50
2022/01/23 12:44:23;;;;;;;15.05;9.70;;;;;;;5.63;50.59;96933.69;4997214;28;20057;-51
2022/01/23 12:46:50;;;;;;;10.30;8.55;;;;;;;5.72;49.95;96920.13;5011137;28;20029;-53
2022/01/23 12:49:15;;;;;;;16.08;11.25;;;;;;;5.49;51.95;96922.16;5013540;28;20108;-51
2022/01/23 12:51:42;;;;;;;13.73;10.77;;;;;;;5.22;52.91;96922.69;5012860;28;20096;-51
2022/01/23 12:54:11;;;;;;;12.43;10.73;;;;;;;5.18;53.35;96925.53;5012149;28;20050;-52
2022/01/23 12:56:45;;;;;;;12.38;9.77;;;;;;;5.17;53.38;96919.47;5012844;28;20028;-48
2022/01/23 12:59:20;;;;;;;12.52;9.45;;;;;;;5.62;53.14;96906.69;5013240;28;20117;-50
2022/01/23 13:01:47;;;;;;;10.25;9.25;;;;;;;5.57;52.91;96903.50;5009375;28;20029;-52
2022/01/23 13:04:15;;;;;;;9.65;8.52;;;;;;;5.84;51.89;96909.03;5012282;28;20037;-51
2022/01/23 13:06:52;;;;;;;10.10;9.20;;;;;;;6.13;51.31;96896.16;5012795;28;20405;-49
2022/01/23 13:12:29;;;;;;;11.40;9.85;;;;;;;6.20;51.00;96896.66;5012178;28;20037;-49
2022/01/23 13:26:59;;;;;;;13.00;9.70;;;;;;;6.86;50.24;96872.91;5012217;28;20084;-52
2022/01/23 13:35:10;;;;;;;11.77;8.95;;;;;;;7.22;48.89;96865.59;5011745;28;20037;-51
2022/01/23 13:37:47;;;;;;;10.38;9.35;;;;;;;7.11;47.25;96861.81;5003806;28;20018;-54
2022/01/23 13:40:16;;;;;;;12.20;10.38;;;;;;;6.85;47.61;96852.88;5011619;28;20044;-53
2022/01/23 13:59:18;;;;;;;19.70;15.00;;;;;;;7.62;46.47;96872.78;5008506;28;20036;-52
2022/01/23 14:04:17;;;;;;;22.08;16.48;;;;;;;6.99;47.13;96873.88;5009188;28;20064;-52
2022/01/23 14:06:44;;;;;;;25.15;17.30;;;;;;;6.95;49.06;96874.97;5009819;28;20405;-51
2022/01/23 14:09:12;;;;;;;18.77;13.95;;;;;;;7.23;48.68;96877.75;5010279;28;20115;-48
2022/01/23 14:11:37;;;;;;;14.80;12.73;;;;;;;7.03;49.18;96869.28;5009788;28;20045;-53
2022/01/23 14:14:16;;;;;;;16.15;12.70;;;;;;;7.22;48.47;96868.22;5008256;28;20030;-50
2022/01/23 14:16:44;;;;;;;22.38;15.13;;;;;;;7.12;50.06;96871.34;5009897;28;20013;-52
2022/01/23 14:19:27;;;;;;;15.25;12.35;;;;;;;7.52;49.41;96867.28;5009929;28;20054;-53
2022/01/23 14:22:00;;;;;;;15.13;11.43;;;;;;;7.15;48.29;96873.78;5009459;28;20018;-52
2022/01/23 14:24:33;;;;;;;16.88;13.18;;;;;;;7.27;50.20;96866.16;5007941;28;20053;-52
2022/01/23 14:27:02;;;;;;;27.00;18.05;;;;;;;7.13;49.51;96870.41;5007784;28;20030;-53
2022/01/23 14:29:30;;;;;;;30.77;21.48;;;;;;;6.85;49.79;96868.59;5009305;28;20034;-52
2022/01/23 14:32:06;;;;;;;34.15;21.77;;;;;;;6.67;50.48;96860.91;5009527;28;20440;-52
2022/01/23 14:34:31;;;;;;;26.60;18.38;;;;;;;6.62;49.86;96862.09;5008516;28;20026;-49
2022/01/23 14:37:06;;;;;;;17.58;13.70;;;;;;;6.63;51.73;96854.16;5009358;28;20041;-52
2022/01/23 14:39:31;;;;;;;31.45;20.08;;;;;;;6.58;50.66;96853.56;5009010;28;20017;-52
2022/01/23 14:42:13;;;;;;;18.42;13.70;;;;;;;6.66;49.53;96847.88;5009593;28;20037;-55
2022/01/23 14:44:38;;;;;;;43.70;24.27;;;;;;;6.55;50.90;96854.59;5007384;28;20018;-52
2022/01/23 14:47:04;;;;;;;42.63;25.23;;;;;;;6.42;51.17;96843.13;5006667;28;20124;-52
2022/01/23 14:49:32;;;;;;;19.65;15.68;;;;;;;6.15;51.73;96849.00;5007284;28;20022;-51
2022/01/23 14:52:00;;;;;;;24.58;19.17;;;;;;;6.07;51.55;96851.19;5009182;28;20025;-51
2022/01/23 14:54:30;;;;;;;17.80;13.85;;;;;;;6.07;52.39;96853.81;5008433;28;20036;-53
2022/01/23 14:57:05;;;;;;;17.65;13.20;;;;;;;5.69;53.05;96861.03;5007241;28;20030;-52
2022/01/23 14:59:33;;;;;;;15.55;13.95;;;;;;;5.52;54.14;96851.47;5008880;28;20022;-52
2022/01/23 15:02:00;;;;;;;17.02;13.15;;;;;;;5.47;54.68;96850.06;5008678;28;20026;-52
2022/01/23 15:04:26;;;;;;;15.00;13.18;;;;;;;5.32;54.95;96856.94;5008719;28;20034;-51
2022/01/23 15:06:52;;;;;;;14.60;13.10;;;;;;;5.21;55.52;96862.72;5008081;28;20044;-52
2022/01/23 15:09:20;;;;;;;15.52;13.85;;;;;;;5.19;55.23;96856.72;5008698;28;20494;-51
2022/01/23 15:11:47;;;;;;;15.73;13.50;;;;;;;5.09;55.57;96862.44;5003869;28;20022;-53